Actual water levels and discharges of Morava river

Lanžhot

Date and time (UTC) H (cm) Q (m3/s)
17. 9. 2019 09:10 39 19
17. 9. 2019 09:00 38 19
17. 9. 2019 08:00 28 15
17. 9. 2019 07:00 24 13
17. 9. 2019 06:00 24 13
17. 9. 2019 05:00 25 14
17. 9. 2019 04:00 26 14
17. 9. 2019 03:00 27 14
17. 9. 2019 02:00 29 15
17. 9. 2019 01:00 31 16
17. 9. 2019 00:00 34 17
16. 9. 2019 23:00 36 18
16. 9. 2019 22:00 39 19
16. 9. 2019 21:00 41 20

H - vodni stav, Q - discharge

Strážnice

Date and time (UTC) H (cm) Q (m3/s)
17. 9. 2019 09:10 106 17
17. 9. 2019 09:00 107 17
17. 9. 2019 08:00 109 18
17. 9. 2019 07:00 109 18
17. 9. 2019 06:00 109 18
17. 9. 2019 05:00 110 19
17. 9. 2019 04:00 110 19
17. 9. 2019 03:00 111 19
17. 9. 2019 02:00 112 20
17. 9. 2019 01:00 112 20
17. 9. 2019 00:00 112 20
16. 9. 2019 23:00 112 20
16. 9. 2019 22:00 110 19
16. 9. 2019 21:00 109 18

H - vodni stav, Q - discharge

Spytihněv

Date and time (UTC) H (cm) Q (m3/s)
17. 9. 2019 09:10 71 11
17. 9. 2019 09:00 74 11
17. 9. 2019 08:00 107 23
17. 9. 2019 07:00 103 21
17. 9. 2019 06:00 102 20
17. 9. 2019 05:00 99 19
17. 9. 2019 04:00 94 17
17. 9. 2019 03:00 94 17
17. 9. 2019 02:00 98 18
17. 9. 2019 01:00 99 19
17. 9. 2019 00:00 96 17
16. 9. 2019 23:00 94 17
16. 9. 2019 22:00 94 17
16. 9. 2019 21:00 87 14

H - vodni stav, Q - discharge

Kroměříž

Date and time (UTC) H (cm) Q (m3/s)
17. 9. 2019 09:10 130 18
17. 9. 2019 09:00 130 18
17. 9. 2019 08:00 130 18
17. 9. 2019 07:00 131 18
17. 9. 2019 06:00 132 18
17. 9. 2019 05:00 132 18
17. 9. 2019 04:00 132 18
17. 9. 2019 03:00 131 18
17. 9. 2019 02:00 131 18
17. 9. 2019 01:00 131 18
17. 9. 2019 00:00 131 18
16. 9. 2019 23:00 131 18
16. 9. 2019 22:00 131 18
16. 9. 2019 21:00 130 18

H - vodni stav, Q - discharge

Olomouc-Nové Sady tok

Date and time (UTC) H (cm) Q (m3/s)
17. 9. 2019 09:10 86 8
17. 9. 2019 09:00 86 8
17. 9. 2019 08:00 86 8
17. 9. 2019 07:00 86 8
17. 9. 2019 06:00 86 8
17. 9. 2019 05:00 87 8
17. 9. 2019 04:00 88 8
17. 9. 2019 03:00 89 9
17. 9. 2019 02:00 88 8
17. 9. 2019 01:00 86 8
17. 9. 2019 00:00 87 8
16. 9. 2019 23:00 87 8
16. 9. 2019 22:00 88 8
16. 9. 2019 21:00 88 8

H - vodni stav, Q - discharge

Moravičany

Date and time (UTC) H (cm) Q (m3/s)
17. 9. 2019 09:10 76 4
17. 9. 2019 09:00 76 4
17. 9. 2019 08:00 76 4
17. 9. 2019 07:00 76 4
17. 9. 2019 06:00 76 4
17. 9. 2019 05:00 76 4
17. 9. 2019 04:00 76 4
17. 9. 2019 03:00 76 4
17. 9. 2019 02:00 76 4
17. 9. 2019 01:00 76 4
17. 9. 2019 00:00 76 4
16. 9. 2019 23:00 76 4
16. 9. 2019 22:00 76 4
16. 9. 2019 21:00 76 4

H - vodni stav, Q - discharge
Source data
Labe Basin Vltava Basin ČHMÚ